createdAt,value
2022-09-10T00:01:17.133Z,72.07
2022-09-10T00:03:43.754Z,72.06
2022-09-10T00:06:11.220Z,72.48
2022-09-10T00:08:39.509Z,72.60
2022-09-10T00:11:09.792Z,72.31
2022-09-10T00:13:39.228Z,72.42
2022-09-10T00:16:10.148Z,72.59
2022-09-10T00:18:38.633Z,72.13
2022-09-10T00:21:09.038Z,72.44
2022-09-10T00:23:36.547Z,72.62
2022-09-10T00:26:19.087Z,73.03
2022-09-10T00:28:45.777Z,72.84
2022-09-10T00:31:13.415Z,73.12
2022-09-10T00:33:40.203Z,73.41
2022-09-10T00:36:37.230Z,73.19
2022-09-10T00:39:09.620Z,73.51
2022-09-10T00:41:38.523Z,73.36
2022-09-10T00:44:08.209Z,73.60
2022-09-10T00:46:50.888Z,73.66
2022-09-10T00:49:22.347Z,73.66
2022-09-10T00:51:52.565Z,73.56
2022-09-10T00:54:21.960Z,73.75
2022-09-10T00:56:49.797Z,73.45
2022-09-10T00:59:20.313Z,73.58
2022-09-10T01:01:49.322Z,73.78
2022-09-10T01:04:16.152Z,73.52
2022-09-10T01:06:45.750Z,73.41
2022-09-10T01:09:14.224Z,73.40
2022-09-10T01:12:09.430Z,73.87
2022-09-10T01:14:56.187Z,73.85
2022-09-10T01:17:33.981Z,73.79
2022-09-10T01:20:11.005Z,73.82
2022-09-10T01:23:17.996Z,73.75
2022-09-10T01:26:03.903Z,73.71
2022-09-10T01:28:45.506Z,74.04
2022-09-10T01:31:23.995Z,74.18
2022-09-10T01:34:02.220Z,74.16
2022-09-10T01:36:35.243Z,74.47
2022-09-10T01:39:02.624Z,74.40
2022-09-10T01:41:29.304Z,74.31
2022-09-10T01:43:57.072Z,74.87
2022-09-10T01:46:55.055Z,74.88
2022-09-10T01:49:32.362Z,74.38
2022-09-10T01:52:04.912Z,74.51
2022-09-10T01:54:45.581Z,74.26
2022-09-10T01:57:46.130Z,74.26
2022-09-10T02:00:16.016Z,74.58
2022-09-10T02:02:52.076Z,74.95
2022-09-10T02:05:22.181Z,75.11
2022-09-10T02:07:59.544Z,74.92
2022-09-10T02:10:26.596Z,75.31
2022-09-10T02:12:54.053Z,75.38
2022-09-10T02:15:41.274Z,75.98
2022-09-10T02:18:24.038Z,75.92
2022-09-10T02:20:55.743Z,76.79
2022-09-10T02:23:27.359Z,76.73
2022-09-10T02:25:54.176Z,76.91
2022-09-10T02:28:27.564Z,77.30
2022-09-10T02:30:55.038Z,77.08
2022-09-10T02:33:21.996Z,77.41
2022-09-10T02:35:49.772Z,77.41
2022-09-10T02:38:18.192Z,77.38
2022-09-10T02:40:49.074Z,77.13
2022-09-10T02:43:17.379Z,77.28
2022-09-10T02:45:44.669Z,77.54
2022-09-10T02:48:11.386Z,77.70
2022-09-10T02:50:38.613Z,77.30
2022-09-10T02:53:05.726Z,77.53
2022-09-10T02:55:32.714Z,77.93
2022-09-10T02:57:59.350Z,77.93
2022-09-10T03:00:26.059Z,78.00
2022-09-10T03:02:56.868Z,78.16
2022-09-10T03:05:27.918Z,77.97
2022-09-10T03:07:55.442Z,77.91
2022-09-10T03:10:22.151Z,78.37
2022-09-10T03:12:49.391Z,78.31
2022-09-10T03:15:18.017Z,78.70
2022-09-10T03:17:44.615Z,78.68
2022-09-10T03:20:11.243Z,78.60
2022-09-10T03:22:38.204Z,78.61
2022-09-10T03:25:06.296Z,78.97
2022-09-10T03:27:35.672Z,78.71
2022-09-10T03:30:03.169Z,78.98
2022-09-10T03:32:32.274Z,79.56
2022-09-10T03:35:00.041Z,79.35
2022-09-10T03:37:26.836Z,79.20
2022-09-10T03:39:53.509Z,79.30
2022-09-10T03:42:20.122Z,79.64
2022-09-10T03:44:46.667Z,79.75
2022-09-10T03:47:13.275Z,79.43
2022-09-10T03:49:39.984Z,79.42
2022-09-10T03:52:07.364Z,79.23
2022-09-10T03:54:37.314Z,79.28
2022-09-10T03:57:04.102Z,79.09
2022-09-10T03:59:31.957Z,79.22
2022-09-10T04:02:01.322Z,79.51
2022-09-10T04:04:27.914Z,79.90
2022-09-10T04:06:54.522Z,79.75
2022-09-10T04:09:21.256Z,80.10
2022-09-10T04:11:47.874Z,79.69
2022-09-10T04:14:15.603Z,79.71
2022-09-10T04:16:42.867Z,79.96
2022-09-10T04:19:13.194Z,79.75
2022-09-10T04:21:40.043Z,79.88
2022-09-10T04:24:09.936Z,80.13
2022-09-10T04:26:36.592Z,80.38
2022-09-10T04:29:04.224Z,80.46
2022-09-10T04:31:31.022Z,80.02
2022-09-10T04:34:03.202Z,80.44
2022-09-10T04:36:32.311Z,80.70
2022-09-10T04:38:59.868Z,80.99
2022-09-10T04:41:27.224Z,81.18
2022-09-10T04:43:53.982Z,81.65
2022-09-10T04:46:20.602Z,81.86
2022-09-10T04:48:50.411Z,81.45
2022-09-10T04:51:20.243Z,81.87
2022-09-10T04:53:48.725Z,81.49
2022-09-10T04:56:15.683Z,81.50
2022-09-10T04:58:44.116Z,81.60
2022-09-10T05:01:11.502Z,81.99
2022-09-10T05:03:38.350Z,81.84
2022-09-10T05:06:06.652Z,82.03
2022-09-10T05:08:34.083Z,81.40
2022-09-10T05:11:02.912Z,82.19
2022-09-10T05:13:33.420Z,82.04
2022-09-10T05:16:01.667Z,81.92
2022-09-10T05:18:30.111Z,82.48
2022-09-10T05:20:57.290Z,82.44
2022-09-10T05:23:24.250Z,82.50
2022-09-10T05:25:53.778Z,83.13
2022-09-10T05:28:21.942Z,83.25
2022-09-10T05:30:51.739Z,83.54
2022-09-10T05:33:22.068Z,83.76
2022-09-10T05:35:51.758Z,84.04
2022-09-10T05:38:19.040Z,84.09
2022-09-10T05:40:45.739Z,84.54
2022-09-10T05:43:12.999Z,84.97
2022-09-10T05:45:39.716Z,84.93
2022-09-10T05:48:07.151Z,84.51
2022-09-10T05:50:34.228Z,84.81
2022-09-10T05:53:01.206Z,84.64
2022-09-10T05:55:31.262Z,85.08
2022-09-10T05:57:58.562Z,84.96
2022-09-10T06:00:25.546Z,84.87
2022-09-10T06:03:00.589Z,84.83
2022-09-10T06:05:31.798Z,85.11
2022-09-10T06:08:00.100Z,84.82
2022-09-10T06:10:26.781Z,84.61
2022-09-10T06:12:53.454Z,84.63
2022-09-10T06:15:21.319Z,84.84
2022-09-10T06:17:50.054Z,84.54
2022-09-10T06:20:17.504Z,84.79
2022-09-10T06:22:45.749Z,84.87
2022-09-10T06:25:12.795Z,84.53
2022-09-10T06:27:40.862Z,84.70
2022-09-10T06:30:08.507Z,83.81
2022-09-10T06:32:39.269Z,83.82
2022-09-10T06:35:09.409Z,84.20
2022-09-10T06:37:37.097Z,83.77
2022-09-10T06:40:07.108Z,83.97
2022-09-10T06:42:34.458Z,84.02
2022-09-10T06:45:12.928Z,83.54
2022-09-10T06:48:37.230Z,83.31
2022-09-10T06:50:55.283Z,83.40
2022-09-10T06:53:28.804Z,83.43
2022-09-10T06:55:56.363Z,83.10
2022-09-10T06:58:24.667Z,83.36
2022-09-10T07:00:53.175Z,82.97
2022-09-10T07:03:21.968Z,82.89
2022-09-10T07:05:50.976Z,83.20
2022-09-10T07:08:18.261Z,82.66
2022-09-10T07:10:50.441Z,83.20
2022-09-10T07:13:17.427Z,82.69
2022-09-10T07:15:47.450Z,83.07
2022-09-10T07:18:15.574Z,82.56
2022-09-10T07:20:43.448Z,82.50
2022-09-10T07:23:14.462Z,82.55
2022-09-10T07:25:41.917Z,82.27
2022-09-10T07:28:18.131Z,82.26
2022-09-10T07:30:47.534Z,82.03
2022-09-10T07:33:15.332Z,82.26
2022-09-10T07:35:43.739Z,82.12
2022-09-10T07:38:14.129Z,81.68
2022-09-10T07:40:43.720Z,81.52
2022-09-10T07:43:10.558Z,81.25
2022-09-10T07:45:37.217Z,81.42
2022-09-10T07:48:04.998Z,81.19
2022-09-10T07:50:36.196Z,80.88
2022-09-10T07:53:02.995Z,81.28
2022-09-10T07:55:31.572Z,81.21
2022-09-10T07:58:00.214Z,81.11
2022-09-10T08:00:29.486Z,80.87
2022-09-10T08:02:59.759Z,80.72
2022-09-10T08:05:28.800Z,80.61
2022-09-10T08:07:55.494Z,80.76
2022-09-10T08:10:25.227Z,80.72
2022-09-10T08:12:52.224Z,80.65
2022-09-10T08:15:19.013Z,80.70
2022-09-10T08:17:46.160Z,80.60
2022-09-10T08:20:13.575Z,80.76
2022-09-10T08:22:43.330Z,80.53
2022-09-10T08:25:10.832Z,79.80
2022-09-10T08:27:37.435Z,80.06
2022-09-10T08:30:07.782Z,79.63
2022-09-10T08:32:36.024Z,79.31
2022-09-10T08:35:05.035Z,79.39
2022-09-10T08:37:33.409Z,79.55
2022-09-10T08:40:00.219Z,79.90
2022-09-10T08:42:35.631Z,80.27
2022-09-10T08:45:14.785Z,80.01
2022-09-10T08:47:53.535Z,78.61
2022-09-10T08:50:41.592Z,78.08
2022-09-10T08:53:23.096Z,77.77
2022-09-10T08:55:50.752Z,77.72
2022-09-10T08:58:25.248Z,76.70
2022-09-10T09:00:57.723Z,76.63
2022-09-10T09:03:35.790Z,76.93
2022-09-10T09:06:05.698Z,76.79
2022-09-10T09:08:48.515Z,76.60
2022-09-10T09:11:29.334Z,76.33
2022-09-10T09:14:04.458Z,76.44
2022-09-10T09:16:46.120Z,77.28
2022-09-10T09:19:39.843Z,78.52
2022-09-10T09:22:17.256Z,78.50
2022-09-10T09:25:30.404Z,78.81
2022-09-10T09:27:57.655Z,78.81
2022-09-10T09:30:49.351Z,78.11
2022-09-10T09:33:22.565Z,76.80
2022-09-10T09:36:03.950Z,75.26
2022-09-10T09:38:38.714Z,74.31
2022-09-10T09:41:42.345Z,72.06
2022-09-10T09:44:28.753Z,70.62
2022-09-10T09:46:56.434Z,69.57
2022-09-10T09:49:25.480Z,68.76
2022-09-10T09:51:55.136Z,68.39
2022-09-10T09:55:03.088Z,68.90
2022-09-10T09:57:20.560Z,67.83
2022-09-10T09:59:49.519Z,65.66
2022-09-10T10:02:19.967Z,62.65
2022-09-10T10:05:07.575Z,63.33
2022-09-10T10:07:36.287Z,62.33
2022-09-10T10:10:07.517Z,62.76
2022-09-10T10:12:37.010Z,63.50
2022-09-10T10:15:03.785Z,62.36
2022-09-10T10:17:38.595Z,62.49
2022-09-10T10:20:13.951Z,62.03
2022-09-10T10:22:48.524Z,61.27
2022-09-10T10:25:34.159Z,62.07
2022-09-10T10:28:00.848Z,61.82
2022-09-10T10:30:30.063Z,62.37
2022-09-10T10:33:01.959Z,61.77
2022-09-10T10:35:33.691Z,61.41
2022-09-10T10:38:06.381Z,61.17
2022-09-10T10:41:00.748Z,60.74
2022-09-10T10:43:42.399Z,59.65
2022-09-10T10:46:28.165Z,60.13
2022-09-10T10:49:07.342Z,60.48
2022-09-10T10:51:39.649Z,60.99
2022-09-10T10:54:12.311Z,61.48
2022-09-10T10:56:42.750Z,60.60
2022-09-10T10:59:46.121Z,60.13
2022-09-10T11:02:50.527Z,57.61
2022-09-10T11:05:38.572Z,58.78
2022-09-10T11:08:11.108Z,58.87
2022-09-10T11:11:14.764Z,59.73
2022-09-10T11:13:44.349Z,59.15
2022-09-10T11:16:15.160Z,59.00
2022-09-10T11:19:19.760Z,59.35
2022-09-10T11:22:14.595Z,59.67
2022-09-10T11:24:50.217Z,55.88
2022-09-10T11:27:33.301Z,56.12
2022-09-10T11:30:05.269Z,56.29
2022-09-10T11:32:53.058Z,56.82
2022-09-10T11:35:33.984Z,57.32
2022-09-10T11:38:55.991Z,57.24
2022-09-10T11:41:28.630Z,57.00
2022-09-10T11:44:22.505Z,57.43
2022-09-10T11:47:14.386Z,57.95
2022-09-10T11:49:55.258Z,58.74
2022-09-10T11:52:23.412Z,62.50
2022-09-10T11:54:50.050Z,65.64
2022-09-10T11:57:31.585Z,67.89
2022-09-10T12:00:15.693Z,70.38
2022-09-10T12:02:54.508Z,71.91
2022-09-10T12:05:55.093Z,72.33
2022-09-10T12:09:20.542Z,72.56
2022-09-10T12:12:22.362Z,73.00
2022-09-10T12:14:49.036Z,73.08
2022-09-10T12:17:28.084Z,73.09
2022-09-10T12:19:57.227Z,72.83
2022-09-10T12:22:36.926Z,73.19
2022-09-10T12:25:24.088Z,74.05
2022-09-10T12:27:52.936Z,75.06
2022-09-10T12:30:27.556Z,75.86
2022-09-10T12:32:55.648Z,76.22
2022-09-10T12:35:31.267Z,77.81
2022-09-10T12:38:35.752Z,76.47
2022-09-10T12:41:04.407Z,73.80
2022-09-10T12:43:43.354Z,72.61
2022-09-10T12:46:09.930Z,69.14
2022-09-10T12:48:40.099Z,69.00
2022-09-10T12:51:46.265Z,67.99
2022-09-10T12:54:31.656Z,67.87
2022-09-10T12:57:20.298Z,68.82
2022-09-10T13:00:12.643Z,69.30
2022-09-10T13:02:52.615Z,70.26
2022-09-10T13:05:39.852Z,70.55
2022-09-10T13:08:15.366Z,70.94
2022-09-10T13:11:15.782Z,71.43
2022-09-10T13:14:02.039Z,68.35
2022-09-10T13:16:28.634Z,63.21
2022-09-10T13:19:13.367Z,58.18
2022-09-10T13:21:42.774Z,58.55
2022-09-10T13:24:34.285Z,57.78
2022-09-10T13:27:12.775Z,56.21
2022-09-10T13:29:49.773Z,55.27
2022-09-10T13:32:31.608Z,55.22
2022-09-10T13:35:33.273Z,55.87
2022-09-10T13:38:29.929Z,56.84
2022-09-10T13:41:17.893Z,57.66
2022-09-10T13:44:22.236Z,58.89
2022-09-10T13:46:55.280Z,59.71
2022-09-10T13:49:41.784Z,59.77
2022-09-10T13:52:13.771Z,60.76
2022-09-10T13:54:47.322Z,59.51
2022-09-10T13:57:43.638Z,57.29
2022-09-10T14:00:13.515Z,55.40
2022-09-10T14:03:01.254Z,53.43
2022-09-10T14:05:43.475Z,53.71
2022-09-10T14:08:18.579Z,54.15
2022-09-10T14:10:50.274Z,55.25
2022-09-10T14:13:27.791Z,56.34
2022-09-10T14:15:58.628Z,57.07
2022-09-10T14:18:32.014Z,57.52
2022-09-10T14:21:00.206Z,58.03
2022-09-10T14:23:29.528Z,58.24
2022-09-10T14:26:23.612Z,58.75
2022-09-10T14:28:58.857Z,59.66
2022-09-10T14:31:25.448Z,59.94
2022-09-10T14:33:55.922Z,60.03
2022-09-10T14:36:33.496Z,60.61
2022-09-10T14:39:17.908Z,60.78
2022-09-10T14:41:45.443Z,61.34
2022-09-10T14:44:22.266Z,62.42
2022-09-10T14:46:54.190Z,62.69
2022-09-10T14:49:32.266Z,63.54
2022-09-10T14:52:00.165Z,63.91
2022-09-10T14:54:27.858Z,64.22
2022-09-10T14:56:57.332Z,63.90
2022-09-10T14:59:26.686Z,63.90
2022-09-10T15:01:53.345Z,64.31
2022-09-10T15:04:23.686Z,64.29
2022-09-10T15:06:58.258Z,64.01
2022-09-10T15:09:26.345Z,63.25
2022-09-10T15:11:54.993Z,61.53
2022-09-10T15:14:21.929Z,60.84
2022-09-10T15:16:54.158Z,60.67
2022-09-10T15:19:22.097Z,60.80
2022-09-10T15:21:49.409Z,60.02
2022-09-10T15:24:18.872Z,58.91
2022-09-10T15:26:46.292Z,59.34
2022-09-10T15:29:13.105Z,59.05
2022-09-10T15:31:40.317Z,59.27
2022-09-10T15:34:08.374Z,59.39
2022-09-10T15:36:37.097Z,59.73
2022-09-10T15:39:05.241Z,59.54
2022-09-10T15:41:32.149Z,60.10
2022-09-10T15:43:59.339Z,59.79
2022-09-10T15:46:26.005Z,59.72
2022-09-10T15:48:53.417Z,60.24
2022-09-10T15:51:23.038Z,59.20
2022-09-10T15:53:52.270Z,59.23
2022-09-10T15:56:20.849Z,59.47
2022-09-10T15:58:49.032Z,59.42
2022-09-10T16:01:16.288Z,60.43
2022-09-10T16:03:48.614Z,60.97
2022-09-10T16:06:15.837Z,61.13
2022-09-10T16:08:42.495Z,61.22
2022-09-10T16:11:11.839Z,61.42
2022-09-10T16:13:39.738Z,61.64
2022-09-10T16:16:12.048Z,62.06
2022-09-10T16:18:38.967Z,62.34
2022-09-10T16:21:15.685Z,62.38
2022-09-10T16:23:43.091Z,62.64
2022-09-10T16:26:15.818Z,62.56
2022-09-10T16:28:56.479Z,62.68
2022-09-10T16:31:39.228Z,62.85
2022-09-10T16:34:08.746Z,63.12
2022-09-10T16:36:39.215Z,63.47
2022-09-10T16:39:12.109Z,63.34
2022-09-10T16:41:43.871Z,62.68
2022-09-10T16:44:11.704Z,62.36
2022-09-10T16:46:39.157Z,62.37
2022-09-10T16:49:06.212Z,63.08
2022-09-10T16:51:35.162Z,62.91
2022-09-10T16:54:04.816Z,62.40
2022-09-10T16:56:35.807Z,62.83
2022-09-10T16:59:02.934Z,63.11
2022-09-10T17:01:31.220Z,63.26
2022-09-10T17:03:57.902Z,63.16
2022-09-10T17:06:28.850Z,62.84
2022-09-10T17:08:57.768Z,62.85
2022-09-10T17:11:26.454Z,63.22
2022-09-10T17:13:54.281Z,63.60
2022-09-10T17:16:20.855Z,63.87
2022-09-10T17:18:54.309Z,65.42
2022-09-10T17:21:20.885Z,66.29
2022-09-10T17:23:47.464Z,67.21
2022-09-10T17:26:14.084Z,67.96
2022-09-10T17:28:40.956Z,69.12
2022-09-10T17:31:07.570Z,70.25
2022-09-10T17:33:34.126Z,71.59
2022-09-10T17:36:03.635Z,72.22
2022-09-10T17:38:33.205Z,73.58
2022-09-10T17:41:04.420Z,73.69
2022-09-10T17:43:34.314Z,74.75
2022-09-10T17:46:09.402Z,75.81
2022-09-10T17:48:36.597Z,77.04
2022-09-10T17:51:03.746Z,78.13
2022-09-10T17:53:30.479Z,79.53
2022-09-10T17:56:02.838Z,80.17
2022-09-10T17:58:32.570Z,80.74
2022-09-10T18:01:01.661Z,81.89
2022-09-10T18:03:28.938Z,82.35
2022-09-10T18:05:56.942Z,82.94
2022-09-10T18:08:23.516Z,83.37
2022-09-10T18:10:50.883Z,83.66
2022-09-10T18:13:19.561Z,83.98
2022-09-10T18:15:46.417Z,84.10
2022-09-10T18:18:13.025Z,84.39
2022-09-10T18:20:39.599Z,84.61
2022-09-10T18:23:06.815Z,85.00
2022-09-10T18:25:33.384Z,85.04
2022-09-10T18:28:01.511Z,85.12
2022-09-10T18:30:28.956Z,85.55
2022-09-10T18:32:55.623Z,85.79
2022-09-10T18:35:23.063Z,85.59
2022-09-10T18:37:52.503Z,85.97
2022-09-10T18:40:19.686Z,86.35
2022-09-10T18:42:47.842Z,86.29
2022-09-10T18:45:14.648Z,86.42
2022-09-10T18:47:45.002Z,86.22
2022-09-10T18:50:13.243Z,86.27
2022-09-10T18:52:40.140Z,86.65
2022-09-10T18:55:07.251Z,86.87
2022-09-10T18:57:33.838Z,86.98
2022-09-10T19:00:00.493Z,86.68
2022-09-10T19:02:27.192Z,86.92
2022-09-10T19:05:10.765Z,86.80
2022-09-10T19:07:38.433Z,86.98
2022-09-10T19:10:07.107Z,87.22
2022-09-10T19:12:34.274Z,87.00
2022-09-10T19:15:00.885Z,87.17
2022-09-10T19:17:27.472Z,87.18
2022-09-10T19:19:54.018Z,86.87
2022-09-10T19:22:20.576Z,86.86
2022-09-10T19:24:55.799Z,86.90
2022-09-10T19:27:23.936Z,86.68
2022-09-10T19:29:50.718Z,86.57
2022-09-10T19:32:19.706Z,86.88
2022-09-10T19:34:49.400Z,86.83
2022-09-10T19:37:15.964Z,86.60
2022-09-10T19:39:43.010Z,86.64
2022-09-10T19:42:09.925Z,86.32
2022-09-10T19:44:36.720Z,86.87
2022-09-10T19:47:04.149Z,86.88
2022-09-10T19:49:31.297Z,86.55
2022-09-10T19:51:57.842Z,85.97
2022-09-10T19:54:25.722Z,86.52
2022-09-10T19:56:52.334Z,86.07
2022-09-10T19:59:18.905Z,86.32
2022-09-10T20:01:46.005Z,86.01
2022-09-10T20:04:14.201Z,85.80
2022-09-10T20:06:42.682Z,86.16
2022-09-10T20:09:12.346Z,86.45
2022-09-10T20:11:39.018Z,86.02
2022-09-10T20:14:09.058Z,85.96
2022-09-10T20:16:42.334Z,85.94
2022-09-10T20:19:11.276Z,85.99
2022-09-10T20:21:38.106Z,85.95
2022-09-10T20:24:06.785Z,86.64
2022-09-10T20:26:35.602Z,86.15
2022-09-10T20:29:05.210Z,86.35
2022-09-10T20:31:35.471Z,86.70
2022-09-10T20:34:05.254Z,86.22
2022-09-10T20:36:34.410Z,86.37
2022-09-10T20:39:01.050Z,85.95
2022-09-10T20:41:30.382Z,85.93
2022-09-10T20:43:59.273Z,85.66
2022-09-10T20:46:27.642Z,85.72
2022-09-10T20:48:55.333Z,85.63
2022-09-10T20:51:21.902Z,85.41
2022-09-10T20:53:48.516Z,85.08
2022-09-10T20:56:18.153Z,85.27
2022-09-10T20:58:46.276Z,84.86
2022-09-10T21:01:19.028Z,84.33
2022-09-10T21:03:47.860Z,84.15
2022-09-10T21:06:17.782Z,84.06
2022-09-10T21:08:44.497Z,84.02
2022-09-10T21:11:13.500Z,83.97
2022-09-10T21:13:48.122Z,83.50
2022-09-10T21:16:18.007Z,83.56
2022-09-10T21:18:54.346Z,83.12
2022-09-10T21:21:25.647Z,83.70
2022-09-10T21:23:58.036Z,83.33
2022-09-10T21:26:27.346Z,83.78
2022-09-10T21:28:59.493Z,83.50
2022-09-10T21:31:27.350Z,83.46
2022-09-10T21:34:00.708Z,83.54
2022-09-10T21:36:30.351Z,84.32
2022-09-10T21:38:59.521Z,84.04
2022-09-10T21:41:33.161Z,84.27
2022-09-10T21:44:01.406Z,84.37
2022-09-10T21:46:28.498Z,84.91
2022-09-10T21:48:55.678Z,85.09
2022-09-10T21:51:23.347Z,84.95
2022-09-10T21:53:54.978Z,84.60
2022-09-10T21:56:22.850Z,84.73
2022-09-10T21:58:49.744Z,84.89
2022-09-10T22:01:22.283Z,84.75
2022-09-10T22:03:51.051Z,84.83
2022-09-10T22:06:20.663Z,84.79
2022-09-10T22:08:49.530Z,84.74
2022-09-10T22:11:24.517Z,84.94
2022-09-10T22:13:55.999Z,85.28
2022-09-10T22:16:23.062Z,85.15
2022-09-10T22:18:50.735Z,85.31
2022-09-10T22:21:18.687Z,85.84
2022-09-10T22:23:45.254Z,85.96
2022-09-10T22:26:16.709Z,85.98
2022-09-10T22:28:44.521Z,86.11
2022-09-10T22:31:15.733Z,85.90
2022-09-10T22:33:44.662Z,87.01
2022-09-10T22:36:16.830Z,86.30
2022-09-10T22:38:43.744Z,86.21
2022-09-10T22:41:10.561Z,86.49
2022-09-10T22:43:38.556Z,86.54
2022-09-10T22:46:07.234Z,86.70
2022-09-10T22:48:37.672Z,86.21
2022-09-10T22:51:09.190Z,86.72
2022-09-10T22:53:35.731Z,86.53
2022-09-10T22:56:02.567Z,86.44
2022-09-10T22:58:29.312Z,86.54
2022-09-10T23:00:56.319Z,86.88
2022-09-10T23:03:22.999Z,86.97
2022-09-10T23:05:49.760Z,87.35
2022-09-10T23:08:17.068Z,87.23
2022-09-10T23:10:43.741Z,87.29
2022-09-10T23:13:10.402Z,87.33
2022-09-10T23:15:36.934Z,87.39
2022-09-10T23:18:03.504Z,86.72
2022-09-10T23:20:30.040Z,87.32
2022-09-10T23:22:56.586Z,87.04
2022-09-10T23:25:23.119Z,87.21
2022-09-10T23:27:51.232Z,87.57
2022-09-10T23:30:18.142Z,87.53
2022-09-10T23:32:45.183Z,88.24
2022-09-10T23:35:11.906Z,88.21
2022-09-10T23:37:38.660Z,88.53
2022-09-10T23:40:06.610Z,89.25
2022-09-10T23:42:33.321Z,89.77
2022-09-10T23:44:59.905Z,89.83
2022-09-10T23:47:27.010Z,90.31
2022-09-10T23:49:53.572Z,91.00
2022-09-10T23:52:20.560Z,91.46
2022-09-10T23:54:47.430Z,91.37
2022-09-10T23:57:14.074Z,91.82
2022-09-10T23:59:41.043Z,91.97
